Time;durP1;ratioP1;P1;durP2;ratioP2;P2;SDS_P1;SDS_P2;PMS_P1;PMS_P2;Temp;Humidity;BMP_temperature;BMP_pressure;BME280_temperature;BME280_humidity;BME280_pressure;Samples;Min_cycle;Max_cycle;Signal;HPM_P1;HPM_P2
2023/06/04 00:02:27;;;;;;;6.45;2.28;;;;;;;14.13;57.13;102338.88;7394019;19;20019;-58
2023/06/04 00:04:55;;;;;;;6.60;2.17;;;;;;;14.09;57.15;102325.84;7395721;19;20038;-59
2023/06/04 00:07:22;;;;;;;4.25;1.90;;;;;;;14.05;57.05;102333.19;7395924;19;20024;-59
2023/06/04 00:09:49;;;;;;;6.82;2.08;;;;;;;14.04;57.14;102333.25;7393987;19;20081;-58
2023/06/04 00:12:16;;;;;;;4.78;2.00;;;;;;;13.98;57.13;102328.34;7392383;19;20064;-57
2023/06/04 00:14:44;;;;;;;5.45;1.98;;;;;;;13.95;57.34;102323.19;7391556;19;20470;-57
2023/06/04 00:17:11;;;;;;;6.93;2.42;;;;;;;13.97;57.31;102321.31;7395023;19;20018;-57
2023/06/04 00:19:40;;;;;;;6.03;2.40;;;;;;;13.98;57.36;102315.88;7394760;19;20031;-57
2023/06/04 00:22:08;;;;;;;7.32;2.83;;;;;;;13.98;57.13;102320.34;7393586;19;20014;-58
2023/06/04 00:24:40;;;;;;;6.65;2.38;;;;;;;13.97;57.42;102324.81;7394718;19;20394;-57
2023/06/04 00:27:08;;;;;;;7.93;2.63;;;;;;;14.00;57.15;102323.75;7395174;19;20018;-57
2023/06/04 00:29:36;;;;;;;5.53;2.28;;;;;;;13.89;57.41;102333.28;7394179;19;20038;-57
2023/06/04 00:32:03;;;;;;;8.05;2.38;;;;;;;13.82;57.88;102331.09;7393215;19;20018;-57
2023/06/04 00:34:31;;;;;;;4.57;2.10;;;;;;;13.75;57.98;102329.75;7393382;19;20029;-57
2023/06/04 00:36:58;;;;;;;6.82;2.28;;;;;;;13.50;58.58;102327.72;7394548;19;20083;-57
2023/06/04 00:39:25;;;;;;;5.65;2.05;;;;;;;13.09;59.73;102321.28;7394282;19;20085;-57
2023/06/04 00:41:52;;;;;;;6.18;2.30;;;;;;;12.99;60.27;102330.72;7393335;19;20386;-57
2023/06/04 00:44:21;;;;;;;5.13;2.20;;;;;;;12.92;60.61;102330.22;7394211;19;20030;-58
2023/06/04 00:46:49;;;;;;;5.43;1.90;;;;;;;12.83;60.88;102333.44;7393963;19;20015;-57
2023/06/04 00:49:16;;;;;;;6.45;2.08;;;;;;;13.14;59.96;102319.19;7392641;19;20424;-57
2023/06/04 00:51:43;;;;;;;6.97;1.85;;;;;;;13.01;60.21;102325.31;7392281;19;20029;-57
2023/06/04 00:54:12;;;;;;;4.55;2.13;;;;;;;12.87;60.60;102313.69;7391621;19;20014;-58
2023/06/04 00:56:39;;;;;;;5.35;2.17;;;;;;;12.72;61.22;102335.00;7393647;19;20042;-58
2023/06/04 00:59:08;;;;;;;3.95;1.98;;;;;;;12.83;60.70;102335.22;7394125;19;20042;-58
2023/06/04 01:01:56;;;;;;;4.93;1.77;;;;;;;12.76;61.17;102332.06;7390256;19;20078;-58
2023/06/04 01:04:30;;;;;;;4.43;2.03;;;;;;;13.06;60.31;102325.91;7392378;19;20022;-57
2023/06/04 01:06:59;;;;;;;6.68;2.22;;;;;;;13.17;59.87;102329.66;7393340;19;20086;-58
2023/06/04 01:09:27;;;;;;;5.88;2.05;;;;;;;13.23;59.33;102328.44;7393103;19;20019;-58
2023/06/04 01:11:58;;;;;;;6.60;2.50;;;;;;;13.32;59.50;102329.72;7391835;19;20015;-57
2023/06/04 01:14:25;;;;;;;7.20;2.17;;;;;;;13.29;59.64;102335.22;7392983;19;20086;-57
2023/06/04 01:17:02;;;;;;;5.20;2.03;;;;;;;13.28;59.43;102329.06;7393207;19;20096;-58
2023/06/04 01:19:51;;;;;;;4.72;2.10;;;;;;;13.25;59.67;102331.88;7393239;19;20019;-58
2023/06/04 01:22:40;;;;;;;6.55;2.40;;;;;;;13.20;60.09;102331.25;7391167;19;20023;-58
2023/06/04 01:25:19;;;;;;;6.28;2.55;;;;;;;13.09;59.92;102333.72;7392990;19;20025;-59
2023/06/04 01:27:50;;;;;;;6.47;2.40;;;;;;;12.85;61.01;102331.53;7392899;19;20018;-59
2023/06/04 01:30:25;;;;;;;5.80;2.15;;;;;;;12.96;60.70;102332.72;7392877;19;20019;-57
2023/06/04 01:32:55;;;;;;;5.68;2.35;;;;;;;13.02;60.48;102332.38;7391253;19;20015;-56
2023/06/04 01:35:23;;;;;;;4.50;2.30;;;;;;;13.02;60.51;102335.03;7390942;19;20542;-55
2023/06/04 01:37:55;;;;;;;5.45;2.30;;;;;;;13.00;60.56;102323.59;7392822;19;20085;-57
2023/06/04 01:40:22;;;;;;;5.55;1.85;;;;;;;12.93;60.83;102328.41;7392247;19;20022;-56
2023/06/04 01:42:50;;;;;;;7.70;2.50;;;;;;;12.76;61.42;102324.09;7390381;19;20010;-56
2023/06/04 01:45:17;;;;;;;4.43;2.10;;;;;;;12.34;62.76;102330.03;7392421;19;20022;-57
2023/06/04 01:47:44;;;;;;;7.07;2.20;;;;;;;12.13;63.82;102330.31;7391542;19;20014;-57
2023/06/04 01:50:11;;;;;;;4.30;2.28;;;;;;;12.16;63.65;102332.75;7391907;19;20035;-57
2023/06/04 01:52:40;;;;;;;4.80;2.30;;;;;;;12.53;62.46;102327.22;7388308;19;20108;-57
2023/06/04 01:55:11;;;;;;;6.95;2.20;;;;;;;12.74;61.86;102325.97;7390696;19;20010;-58
2023/06/04 01:57:40;;;;;;;7.32;2.42;;;;;;;12.60;61.76;102339.22;7391978;19;20369;-58
2023/06/04 02:00:10;;;;;;;5.70;2.58;;;;;;;12.13;63.88;102334.72;7391850;19;20014;-59
2023/06/04 02:02:38;;;;;;;6.60;2.50;;;;;;;11.93;64.46;102326.06;7390020;19;20018;-56
2023/06/04 02:05:08;;;;;;;7.15;2.38;;;;;;;12.10;64.10;102321.63;7391863;19;20336;-57
2023/06/04 02:07:39;;;;;;;6.78;2.22;;;;;;;12.39;62.76;102326.16;7391315;19;20011;-56
2023/06/04 02:10:25;;;;;;;5.68;2.38;;;;;;;12.67;61.92;102330.81;7391990;19;20022;-56
2023/06/04 02:12:57;;;;;;;6.50;2.00;;;;;;;12.62;61.73;102335.50;7385750;19;20030;-57
2023/06/04 02:15:26;;;;;;;6.18;2.42;;;;;;;12.31;62.74;102330.22;7390428;19;20028;-56
2023/06/04 02:17:58;;;;;;;5.72;2.40;;;;;;;12.13;63.43;102330.31;7390588;19;20502;-57
2023/06/04 02:20:27;;;;;;;6.77;2.60;;;;;;;11.87;64.21;102330.84;7391156;19;20022;-56
2023/06/04 02:22:57;;;;;;;8.48;2.88;;;;;;;11.79;64.84;102325.03;7389182;19;20531;-56
2023/06/04 02:25:24;;;;;;;7.18;2.50;;;;;;;11.67;65.44;102326.56;7391096;19;20034;-57
2023/06/04 02:27:51;;;;;;;6.55;2.05;;;;;;;12.12;63.55;102325.91;7388833;19;20019;-57
2023/06/04 02:30:18;;;;;;;6.13;2.55;;;;;;;12.34;62.80;102324.72;7389481;19;20015;-56
2023/06/04 02:32:45;;;;;;;8.00;2.28;;;;;;;12.38;62.59;102319.16;7388911;19;20155;-56
2023/06/04 02:35:18;;;;;;;7.68;2.03;;;;;;;12.28;62.51;102328.56;7389979;19;20063;-56
2023/06/04 02:37:45;;;;;;;6.65;2.20;;;;;;;12.00;63.72;102326.59;7390601;19;20420;-57
2023/06/04 02:40:12;;;;;;;5.57;2.13;;;;;;;12.24;62.92;102332.34;7390602;19;20027;-57
2023/06/04 02:42:40;;;;;;;4.15;1.95;;;;;;;12.28;62.62;102327.72;7388999;19;20486;-57
2023/06/04 02:45:07;;;;;;;4.10;1.90;;;;;;;12.36;62.41;102326.38;7390369;19;20035;-57
2023/06/04 02:47:34;;;;;;;5.05;2.20;;;;;;;11.97;63.66;102331.19;7388653;19;20017;-57
2023/06/04 02:50:03;;;;;;;4.65;2.03;;;;;;;11.91;63.77;102332.41;7390165;19;20042;-58
2023/06/04 02:52:31;;;;;;;6.97;2.08;;;;;;;11.70;64.37;102326.41;7388173;19;20026;-58
2023/06/04 02:54:58;;;;;;;7.90;2.40;;;;;;;11.78;64.02;102326.00;7389310;19;20019;-58
2023/06/04 02:57:25;;;;;;;6.13;2.28;;;;;;;11.98;63.53;102332.91;7390110;19;20105;-58
2023/06/04 02:59:55;;;;;;;6.65;2.65;;;;;;;12.06;63.01;102338.69;7390419;19;20042;-57
2023/06/04 03:02:22;;;;;;;4.45;2.13;;;;;;;11.49;64.89;102336.38;7388296;19;20455;-56
2023/06/04 03:04:51;;;;;;;7.78;2.80;;;;;;;11.21;66.19;102344.84;7388387;19;20006;-56
2023/06/04 03:07:22;;;;;;;7.70;3.10;;;;;;;11.17;66.45;102349.47;7389581;19;20025;-56
2023/06/04 03:09:50;;;;;;;5.40;2.35;;;;;;;11.67;65.09;102339.81;7389916;19;20018;-57
2023/06/04 03:12:17;;;;;;;4.95;2.50;;;;;;;11.70;64.33;102337.88;7388521;19;20089;-58
2023/06/04 03:14:44;;;;;;;5.32;2.20;;;;;;;11.49;65.18;102335.50;7389377;19;20399;-57
2023/06/04 03:17:12;;;;;;;5.13;2.15;;;;;;;11.47;65.57;102335.56;7389566;19;20030;-57
2023/06/04 03:19:41;;;;;;;4.90;2.45;;;;;;;11.42;65.47;102341.13;7389629;19;20018;-57
2023/06/04 03:22:10;;;;;;;5.60;2.22;;;;;;;11.67;65.08;102337.16;7388118;19;20019;-57
2023/06/04 03:24:39;;;;;;;6.75;2.30;;;;;;;11.95;63.62;102340.13;7392501;19;20490;-57
2023/06/04 03:27:08;;;;;;;6.63;2.33;;;;;;;12.02;63.57;102340.66;7394826;19;20568;-58
2023/06/04 03:29:36;;;;;;;7.47;2.50;;;;;;;12.02;63.46;102334.44;7396957;19;20022;-58
2023/06/04 03:32:04;;;;;;;5.85;2.35;;;;;;;12.03;63.32;102339.69;7394888;19;20024;-58
2023/06/04 03:34:31;;;;;;;6.85;2.60;;;;;;;12.04;63.48;102337.91;7394212;19;20018;-58
2023/06/04 03:37:02;;;;;;;6.10;1.92;;;;;;;11.60;65.08;102327.81;7395893;19;20507;-57
2023/06/04 03:39:29;;;;;;;5.03;2.35;;;;;;;11.41;65.91;102334.09;7395796;19;20552;-58
2023/06/04 03:41:57;;;;;;;5.70;2.40;;;;;;;11.37;66.19;102329.91;7395002;19;20018;-57
2023/06/04 03:44:24;;;;;;;7.13;2.72;;;;;;;11.40;66.44;102334.16;7396102;19;20086;-58
2023/06/04 03:46:51;;;;;;;5.40;2.22;;;;;;;11.37;66.94;102342.28;7394747;19;20021;-58
2023/06/04 03:49:19;;;;;;;7.47;2.63;;;;;;;11.76;65.40;102331.41;7395465;19;20389;-58
2023/06/04 03:51:46;;;;;;;5.05;2.40;;;;;;;11.97;64.52;102334.72;7393371;19;20022;-58
2023/06/04 03:54:16;;;;;;;5.60;2.40;;;;;;;12.07;64.25;102333.28;7395559;19;20085;-58
2023/06/04 03:56:46;;;;;;;6.20;2.20;;;;;;;12.17;63.85;102331.84;7395301;19;20011;-58
2023/06/04 03:59:14;;;;;;;7.03;2.60;;;;;;;12.12;63.90;102325.91;7395328;19;20011;-58
2023/06/04 04:01:42;;;;;;;6.30;2.58;;;;;;;12.26;63.77;102329.63;7394864;19;20085;-59
2023/06/04 04:04:09;;;;;;;7.00;2.40;;;;;;;12.22;63.88;102331.59;7395099;19;20023;-58
2023/06/04 04:06:37;;;;;;;4.50;2.30;;;;;;;12.24;63.73;102332.34;7395692;19;20035;-58
2023/06/04 04:09:06;;;;;;;6.13;2.47;;;;;;;12.34;63.60;102332.69;7395143;19;20018;-58
2023/06/04 04:11:33;;;;;;;7.15;2.88;;;;;;;11.98;65.10;102322.28;7394815;19;20090;-58
2023/06/04 04:14:00;;;;;;;10.27;2.55;;;;;;;12.10;64.93;102326.94;7390746;19;20029;-58
2023/06/04 04:16:28;;;;;;;7.18;2.70;;;;;;;12.27;64.38;102331.31;7392833;19;20025;-58
2023/06/04 04:18:55;;;;;;;6.90;2.97;;;;;;;12.33;64.00;102331.00;7393370;19;20043;-58
2023/06/04 04:21:23;;;;;;;7.00;2.90;;;;;;;12.34;64.18;102330.03;7394522;19;20023;-59
2023/06/04 04:23:51;;;;;;;6.03;2.50;;;;;;;12.34;64.11;102328.25;7392541;19;20014;-59
2023/06/04 04:26:18;;;;;;;8.10;2.65;;;;;;;12.37;64.33;102332.53;7395124;19;20030;-58
2023/06/04 04:28:45;;;;;;;8.00;2.85;;;;;;;12.42;64.35;102323.34;7394698;19;20096;-59
2023/06/04 04:31:13;;;;;;;7.13;2.83;;;;;;;12.47;64.24;102324.88;7394178;19;20038;-59
2023/06/04 04:33:40;;;;;;;8.23;2.75;;;;;;;12.50;64.03;102327.38;7392359;19;20018;-58
2023/06/04 04:36:12;;;;;;;6.72;2.70;;;;;;;12.59;64.02;102330.38;7391241;19;20015;-58
2023/06/04 04:38:40;;;;;;;5.65;2.40;;;;;;;12.59;64.08;102329.50;7394329;19;20111;-58
2023/06/04 04:41:08;;;;;;;8.45;2.95;;;;;;;12.60;64.42;102332.09;7393445;19;20018;-58
2023/06/04 04:43:39;;;;;;;8.63;3.05;;;;;;;12.64;64.06;102327.47;7392172;19;20038;-60
2023/06/04 04:46:07;;;;;;;8.10;2.90;;;;;;;12.67;64.22;102328.16;7393988;19;20022;-59
2023/06/04 04:48:34;;;;;;;6.45;2.88;;;;;;;12.74;64.13;102333.94;7393709;19;20022;-61
2023/06/04 04:51:01;;;;;;;7.07;3.22;;;;;;;12.83;63.57;102322.78;7392833;19;20082;-60
2023/06/04 04:53:31;;;;;;;6.63;2.55;;;;;;;12.82;64.19;102328.19;7390604;19;20358;-60
2023/06/04 04:55:58;;;;;;;8.40;3.15;;;;;;;12.82;64.13;102328.19;7392421;19;20090;-60
2023/06/04 04:58:25;;;;;;;8.32;2.72;;;;;;;12.88;64.34;102327.84;7393243;19;20029;-57
2023/06/04 05:00:52;;;;;;;9.00;3.17;;;;;;;12.92;63.72;102332.03;7392992;19;20039;-58
2023/06/04 05:03:19;;;;;;;6.18;2.78;;;;;;;12.88;63.97;102341.13;7392564;19;20101;-57
2023/06/04 05:05:46;;;;;;;9.05;3.13;;;;;;;12.85;64.23;102331.53;7392892;19;20085;-56
2023/06/04 05:08:13;;;;;;;6.75;2.97;;;;;;;12.91;64.01;102336.50;7392741;19;20022;-58
2023/06/04 05:10:41;;;;;;;8.13;2.97;;;;;;;12.98;63.99;102337.00;7390712;19;20014;-58
2023/06/04 05:13:08;;;;;;;7.43;3.00;;;;;;;13.03;64.34;102334.91;7392087;19;20022;-58
2023/06/04 05:15:35;;;;;;;7.40;3.10;;;;;;;13.09;64.22;102329.25;7392215;19;20018;-57
2023/06/04 05:18:03;;;;;;;7.30;3.25;;;;;;;13.13;64.37;102336.09;7393165;19;20031;-57
2023/06/04 05:20:30;;;;;;;10.57;3.50;;;;;;;13.14;64.46;102332.47;7390585;19;20022;-57
2023/06/04 05:22:58;;;;;;;9.35;4.10;;;;;;;13.19;64.36;102332.22;7389567;19;20372;-57
2023/06/04 05:25:26;;;;;;;11.43;3.53;;;;;;;13.29;64.31;102341.41;7392415;19;20026;-59
2023/06/04 05:27:55;;;;;;;8.40;3.60;;;;;;;13.26;64.73;102341.56;7393141;19;20019;-59
2023/06/04 05:30:23;;;;;;;10.65;4.30;;;;;;;13.34;64.26;102344.63;7390310;19;20086;-57
2023/06/04 05:32:50;;;;;;;8.45;3.50;;;;;;;13.35;64.67;102351.66;7390833;19;20039;-57
2023/06/04 05:35:17;;;;;;;7.50;3.50;;;;;;;13.37;64.73;102349.78;7391031;19;20026;-57
2023/06/04 05:37:45;;;;;;;7.30;3.65;;;;;;;13.40;64.51;102346.94;7391805;19;20019;-57
2023/06/04 05:40:13;;;;;;;9.63;3.40;;;;;;;13.42;64.39;102349.50;7389951;19;20569;-58
2023/06/04 05:42:40;;;;;;;10.55;3.60;;;;;;;13.40;64.54;102354.91;7390353;19;20527;-58
2023/06/04 05:45:09;;;;;;;8.93;3.05;;;;;;;13.49;64.47;102352.66;7390331;19;20019;-60
2023/06/04 05:47:36;;;;;;;8.02;3.03;;;;;;;13.52;64.58;102353.31;7390041;19;20043;-60
2023/06/04 05:50:05;;;;;;;9.73;3.60;;;;;;;13.57;64.57;102355.69;7391831;19;20106;-60
2023/06/04 05:52:34;;;;;;;8.38;3.50;;;;;;;13.62;64.60;102350.94;7388724;19;20490;-60
2023/06/04 05:55:01;;;;;;;10.68;3.40;;;;;;;13.65;64.82;102350.75;7391534;19;20039;-60
2023/06/04 05:57:28;;;;;;;10.15;3.80;;;;;;;13.62;64.72;102353.59;7391649;19;20420;-60
2023/06/04 05:59:55;;;;;;;9.80;3.70;;;;;;;13.64;64.82;102352.56;7391619;19;20011;-60
2023/06/04 06:02:22;;;;;;;9.25;3.42;;;;;;;13.71;64.85;102352.22;7390468;19;20097;-58
2023/06/04 06:04:50;;;;;;;9.70;3.80;;;;;;;13.80;64.21;102362.28;7391298;19;20081;-59
2023/06/04 06:07:19;;;;;;;6.35;3.22;;;;;;;13.83;63.99;102365.63;7391246;19;20015;-59
2023/06/04 06:09:46;;;;;;;9.68;3.42;;;;;;;13.89;64.02;102365.25;7390619;19;20026;-59
2023/06/04 06:12:13;;;;;;;11.20;3.22;;;;;;;13.94;63.32;102364.09;7388282;19;20511;-59
2023/06/04 06:14:41;;;;;;;8.45;3.55;;;;;;;13.93;63.28;102363.25;7390528;19;20013;-59
2023/06/04 06:17:08;;;;;;;7.13;2.95;;;;;;;13.97;63.09;102364.78;7387477;19;20039;-59
2023/06/04 06:19:37;;;;;;;7.22;2.95;;;;;;;14.03;62.90;102364.38;7390684;19;20498;-58
2023/06/04 06:22:04;;;;;;;7.72;3.30;;;;;;;14.16;62.64;102367.16;7389117;19;20031;-58
2023/06/04 06:24:31;;;;;;;9.07;3.30;;;;;;;14.22;62.22;102366.75;7390920;19;20035;-58
2023/06/04 06:26:58;;;;;;;9.05;3.10;;;;;;;14.22;61.82;102364.06;7390265;19;20023;-57
2023/06/04 06:29:25;;;;;;;9.55;3.28;;;;;;;14.24;61.62;102364.00;7390777;19;20022;-57
2023/06/04 06:31:53;;;;;;;6.47;2.78;;;;;;;14.23;60.91;102370.25;7389486;19;20022;-57
2023/06/04 06:34:20;;;;;;;9.00;3.30;;;;;;;14.24;60.71;102372.84;7390779;19;20043;-57
2023/06/04 06:36:48;;;;;;;10.60;2.85;;;;;;;14.27;60.00;102374.44;7389359;19;20090;-58
2023/06/04 06:39:15;;;;;;;7.90;3.08;;;;;;;14.34;59.95;102381.09;7390990;19;20435;-58
2023/06/04 06:41:42;;;;;;;6.65;2.70;;;;;;;14.39;60.22;102373.69;7389126;19;20018;-57
2023/06/04 06:44:10;;;;;;;10.10;3.53;;;;;;;14.44;60.64;102379.56;7390470;19;20420;-58
2023/06/04 06:46:37;;;;;;;6.38;2.97;;;;;;;14.47;60.63;102367.84;7390644;19;20018;-57
2023/06/04 06:49:04;;;;;;;8.48;3.08;;;;;;;14.54;60.65;102372.72;7390130;19;20042;-57
2023/06/04 06:51:31;;;;;;;7.22;3.20;;;;;;;14.58;60.31;102378.72;7389148;19;20034;-57
2023/06/04 06:53:58;;;;;;;7.88;3.00;;;;;;;14.59;60.76;102369.75;7387911;19;20082;-56
2023/06/04 06:56:26;;;;;;;8.25;3.78;;;;;;;14.66;60.85;102380.88;7388164;19;20022;-57
2023/06/04 06:58:53;;;;;;;7.18;3.03;;;;;;;14.72;60.69;102380.47;7390742;19;20057;-57
2023/06/04 07:01:20;;;;;;;6.68;2.78;;;;;;;14.75;60.46;102378.47;7396762;19;20019;-57
2023/06/04 07:03:48;;;;;;;6.93;2.88;;;;;;;14.80;60.53;102386.16;7394760;19;20022;-57
2023/06/04 07:06:16;;;;;;;6.15;3.10;;;;;;;14.84;60.35;102382.34;7397136;19;20015;-58
2023/06/04 07:08:43;;;;;;;9.40;3.25;;;;;;;14.89;60.27;102387.38;7397203;19;20019;-57
2023/06/04 07:11:13;;;;;;;6.85;3.38;;;;;;;14.95;60.51;102386.97;7396336;19;20507;-57
2023/06/04 07:13:40;;;;;;;6.57;2.75;;;;;;;15.02;60.27;102385.59;7394568;19;20020;-56
2023/06/04 07:16:07;;;;;;;8.70;2.60;;;;;;;15.11;59.90;102383.19;7395527;19;20047;-57
2023/06/04 07:18:35;;;;;;;7.80;2.63;;;;;;;15.17;59.18;102381.06;7397219;19;20022;-59
2023/06/04 07:21:02;;;;;;;7.18;2.60;;;;;;;15.19;58.65;102385.34;7394153;19;20582;-59
2023/06/04 07:23:29;;;;;;;6.45;2.72;;;;;;;15.21;58.31;102390.56;7394648;19;20051;-61
2023/06/04 07:25:56;;;;;;;10.00;3.22;;;;;;;15.23;58.32;102388.66;7396395;19;20015;-62
2023/06/04 07:28:23;;;;;;;7.50;3.28;;;;;;;15.29;57.94;102391.75;7396379;19;20032;-59
2023/06/04 07:30:51;;;;;;;6.03;2.40;;;;;;;15.31;57.54;102387.19;7395674;19;20014;-61
2023/06/04 07:33:18;;;;;;;6.30;2.60;;;;;;;15.38;57.33;102384.97;7394250;19;20054;-60
2023/06/04 07:35:45;;;;;;;6.97;2.60;;;;;;;15.46;56.95;102379.09;7395772;19;20035;-61
2023/06/04 07:38:12;;;;;;;6.63;2.58;;;;;;;15.48;56.54;102379.84;7395766;19;20026;-61
2023/06/04 07:40:39;;;;;;;6.35;2.45;;;;;;;15.47;56.32;102383.47;7393801;19;20022;-61
2023/06/04 07:43:07;;;;;;;5.93;2.55;;;;;;;15.49;56.10;102378.88;7394160;19;20015;-60
2023/06/04 07:45:34;;;;;;;7.43;3.58;;;;;;;15.50;56.81;102381.47;7395956;19;20014;-60
2023/06/04 07:48:02;;;;;;;8.05;4.45;;;;;;;15.58;57.21;102378.25;7395602;19;20019;-60
2023/06/04 07:50:29;;;;;;;6.20;2.65;;;;;;;15.68;57.07;102378.50;7393628;19;20562;-60
2023/06/04 07:53:01;;;;;;;7.38;2.60;;;;;;;15.73;57.11;102377.22;7393499;19;20019;-61
2023/06/04 07:55:29;;;;;;;6.82;2.28;;;;;;;15.81;56.28;102371.34;7395975;19;20015;-60
2023/06/04 07:57:56;;;;;;;6.95;2.65;;;;;;;15.87;55.46;102365.56;7395374;19;20357;-61
2023/06/04 08:00:23;;;;;;;5.70;2.38;;;;;;;15.93;55.34;102370.47;7395263;19;20038;-60
2023/06/04 08:02:50;;;;;;;7.32;2.72;;;;;;;15.97;55.32;102363.97;7392903;19;20018;-57
2023/06/04 08:05:18;;;;;;;4.80;2.22;;;;;;;16.03;54.98;102368.88;7395774;19;20022;-56
2023/06/04 08:07:46;;;;;;;8.35;1.77;;;;;;;16.09;54.56;102371.09;7395751;19;20043;-57
2023/06/04 08:10:13;;;;;;;5.15;1.90;;;;;;;16.14;53.92;102369.91;7394516;19;20018;-57
2023/06/04 08:12:40;;;;;;;4.70;2.00;;;;;;;16.19;53.76;102373.13;7392229;19;20114;-57
2023/06/04 08:15:08;;;;;;;5.80;1.60;;;;;;;16.25;53.15;102375.34;7395187;19;20018;-57
2023/06/04 08:17:35;;;;;;;6.05;1.92;;;;;;;16.30;53.41;102378.56;7392307;19;20010;-56
2023/06/04 08:20:06;;;;;;;8.05;2.00;;;;;;;16.31;53.53;102375.78;7395043;19;20077;-56
2023/06/04 08:22:33;;;;;;;5.47;1.88;;;;;;;16.38;53.62;102378.00;7392633;19;20116;-58
2023/06/04 08:25:00;;;;;;;6.60;2.10;;;;;;;16.39;52.71;102380.56;7394886;19;20018;-60
2023/06/04 08:27:28;;;;;;;5.45;1.65;;;;;;;16.44;52.22;102377.56;7393143;19;20482;-60
2023/06/04 08:29:55;;;;;;;5.30;1.60;;;;;;;16.42;51.96;102380.34;7394068;19;20421;-59
2023/06/04 08:32:22;;;;;;;7.55;2.40;;;;;;;16.45;52.12;102379.28;7392188;19;20153;-60
2023/06/04 08:34:50;;;;;;;5.53;1.60;;;;;;;16.46;52.06;102381.84;7394520;19;20018;-59
2023/06/04 08:37:17;;;;;;;8.38;2.80;;;;;;;16.48;52.18;102382.59;7392020;19;20019;-59
2023/06/04 08:39:44;;;;;;;7.72;2.40;;;;;;;16.55;51.22;102377.63;7392984;19;20062;-59
2023/06/04 08:42:26;;;;;;;5.63;1.70;;;;;;;16.65;50.64;102378.69;7394348;19;20043;-59
2023/06/04 08:44:54;;;;;;;6.63;1.85;;;;;;;16.65;50.98;102377.81;7393448;19;20035;-59
2023/06/04 08:47:23;;;;;;;8.88;2.03;;;;;;;16.75;50.66;102387.78;7393767;19;20014;-58
2023/06/04 08:49:51;;;;;;;5.20;1.88;;;;;;;16.79;50.44;102383.06;7393625;19;20038;-58
2023/06/04 08:52:22;;;;;;;6.68;2.20;;;;;;;16.84;50.65;102380.88;7392650;19;20086;-59
2023/06/04 08:54:51;;;;;;;7.32;1.70;;;;;;;16.92;49.60;102388.34;7392740;19;20014;-59
2023/06/04 08:57:19;;;;;;;4.53;1.65;;;;;;;16.97;48.51;102387.00;7391345;19;20089;-59
2023/06/04 08:59:49;;;;;;;5.93;1.85;;;;;;;17.00;48.32;102384.09;7393251;19;20470;-59
2023/06/04 09:02:17;;;;;;;3.92;1.33;;;;;;;17.00;46.77;102383.25;7390616;19;20043;-59
2023/06/04 09:04:45;;;;;;;5.95;1.50;;;;;;;17.00;45.65;102385.94;7392716;19;20032;-59
2023/06/04 09:07:14;;;;;;;6.10;1.67;;;;;;;17.07;45.88;102383.66;7392578;19;20022;-59
2023/06/04 09:09:45;;;;;;;4.32;1.40;;;;;;;17.10;46.06;102381.63;7392580;19;20483;-58
2023/06/04 09:12:25;;;;;;;5.32;1.35;;;;;;;17.14;46.39;102383.09;7392189;19;20018;-58
2023/06/04 09:14:52;;;;;;;6.05;2.00;;;;;;;17.15;45.84;102379.44;7390804;19;20015;-58
2023/06/04 09:17:28;;;;;;;3.53;1.45;;;;;;;17.24;46.24;102381.41;7389879;19;20015;-59
2023/06/04 09:19:55;;;;;;;3.22;1.38;;;;;;;17.21;46.30;102383.47;7392851;19;20056;-59
2023/06/04 09:22:32;;;;;;;3.78;1.38;;;;;;;17.32;46.08;102377.28;7390741;19;20019;-59
2023/06/04 09:24:59;;;;;;;6.43;1.60;;;;;;;17.30;46.87;102380.94;7392007;19;20014;-60
2023/06/04 09:27:28;;;;;;;6.15;1.75;;;;;;;17.42;46.70;102379.16;7392003;19;20085;-60
2023/06/04 09:29:56;;;;;;;5.97;1.83;;;;;;;17.41;46.79;102385.50;7392435;19;20054;-60
2023/06/04 09:32:26;;;;;;;8.07;1.88;;;;;;;17.44;47.16;102385.25;7391136;19;20022;-60
2023/06/04 09:34:56;;;;;;;8.02;1.90;;;;;;;17.54;47.18;102383.56;7391873;19;20562;-60
2023/06/04 09:37:24;;;;;;;4.15;1.60;;;;;;;17.65;47.01;102377.38;7390148;19;20043;-59
2023/06/04 09:39:55;;;;;;;6.60;1.88;;;;;;;17.75;46.51;102378.41;7390166;19;20539;-60
2023/06/04 09:42:23;;;;;;;5.15;1.83;;;;;;;17.74;46.44;102387.41;7390455;19;20031;-59
2023/06/04 09:44:51;;;;;;;4.70;1.60;;;;;;;17.68;46.43;102381.66;7391827;19;20089;-60
2023/06/04 09:47:18;;;;;;;5.03;1.77;;;;;;;17.74;46.57;102382.03;7390991;19;20111;-60
2023/06/04 09:49:49;;;;;;;5.50;1.80;;;;;;;17.80;46.14;102383.41;7392316;19;20018;-59
2023/06/04 09:52:17;;;;;;;5.03;1.48;;;;;;;17.95;44.56;102378.66;7389755;19;20022;-60
2023/06/04 09:54:44;;;;;;;4.05;1.52;;;;;;;18.00;43.71;102381.81;7391233;19;20014;-60
2023/06/04 09:57:16;;;;;;;5.25;1.60;;;;;;;17.95;43.47;102381.34;7389998;19;20022;-60
2023/06/04 09:59:45;;;;;;;3.33;1.45;;;;;;;17.92;43.54;102381.56;7390054;19;20094;-61
2023/06/04 10:02:13;;;;;;;3.47;1.65;;;;;;;17.99;43.01;102374.75;7389869;19;20026;-61
2023/06/04 10:04:42;;;;;;;3.45;1.40;;;;;;;18.01;43.31;102375.50;7389634;19;20746;-61
2023/06/04 10:07:12;;;;;;;4.63;1.55;;;;;;;18.03;43.70;102368.19;7389014;19;20082;-60
2023/06/04 10:09:45;;;;;;;4.50;1.30;;;;;;;18.15;43.62;102380.59;7391441;19;20014;-61
2023/06/04 10:12:16;;;;;;;5.53;1.40;;;;;;;18.23;42.60;102378.16;7389275;19;20530;-61
2023/06/04 10:14:52;;;;;;;3.22;1.40;;;;;;;18.26;42.46;102377.06;7393092;19;20086;-61
2023/06/04 10:17:24;;;;;;;4.28;1.50;;;;;;;18.25;42.30;102367.31;7389949;19;20513;-60
2023/06/04 10:19:54;;;;;;;5.25;1.25;;;;;;;18.16;42.37;102371.59;7390994;19;20107;-61
2023/06/04 10:22:21;;;;;;;3.97;1.45;;;;;;;18.20;41.97;102377.53;7389530;19;20015;-60
2023/06/04 10:24:49;;;;;;;3.78;1.27;;;;;;;18.33;41.69;102377.44;7390345;19;20018;-60
2023/06/04 10:27:17;;;;;;;3.88;1.27;;;;;;;18.36;40.94;102372.69;7390650;19;20018;-60
2023/06/04 10:29:45;;;;;;;3.15;1.30;;;;;;;18.35;40.55;102376.31;7388165;19;20021;-60
2023/06/04 10:32:13;;;;;;;4.80;1.20;;;;;;;18.42;40.18;102368.63;7387369;19;20014;-60
2023/06/04 10:34:40;;;;;;;3.50;1.27;;;;;;;18.48;40.10;102374.34;7393491;19;20416;-60
2023/06/04 10:37:29;;;;;;;3.72;1.40;;;;;;;18.51;39.85;102384.00;7396730;19;20086;-60
2023/06/04 10:39:58;;;;;;;3.92;1.38;;;;;;;18.47;40.45;102377.19;7397538;19;20011;-59
2023/06/04 10:42:25;;;;;;;4.30;1.30;;;;;;;18.58;39.92;102377.13;7396329;19;20022;-61
2023/06/04 10:44:55;;;;;;;3.95;1.40;;;;;;;18.65;39.80;102382.84;7397014;19;20019;-61
2023/06/04 10:47:26;;;;;;;3.97;1.20;;;;;;;18.60;39.45;102385.06;7397509;19;20019;-60
2023/06/04 10:49:54;;;;;;;2.75;1.10;;;;;;;18.60;39.77;102377.88;7397359;19;20082;-60
2023/06/04 10:52:22;;;;;;;3.90;1.42;;;;;;;18.59;39.14;102389.59;7395450;19;20501;-60
2023/06/04 10:54:51;;;;;;;5.95;1.60;;;;;;;18.57;38.58;102382.63;7397119;19;20502;-60
2023/06/04 10:57:19;;;;;;;4.80;1.60;;;;;;;18.60;38.65;102379.69;7394911;19;20015;-60
2023/06/04 10:59:57;;;;;;;4.35;1.30;;;;;;;18.72;38.19;102384.09;7401935;19;20018;-60
2023/06/04 11:02:25;;;;;;;3.67;1.30;;;;;;;18.79;38.81;102377.25;7393669;19;20045;-60
2023/06/04 11:05:01;;;;;;;3.13;1.20;;;;;;;18.88;38.78;102375.63;7397439;19;20015;-60
2023/06/04 11:07:28;;;;;;;5.07;1.50;;;;;;;18.92;39.35;102374.38;7396775;19;20097;-60
2023/06/04 11:09:55;;;;;;;6.53;1.50;;;;;;;18.98;39.26;102368.50;7396787;19;20022;-59
2023/06/04 11:12:23;;;;;;;5.63;1.40;;;;;;;19.06;39.22;102371.41;7394158;19;20021;-59
2023/06/04 11:14:57;;;;;;;2.78;1.10;;;;;;;19.04;39.07;102368.00;7396563;19;20360;-60
2023/06/04 11:17:24;;;;;;;5.30;1.80;;;;;;;19.03;39.04;102377.03;7395443;19;20420;-61
2023/06/04 11:19:55;;;;;;;5.80;1.70;;;;;;;19.07;38.84;102377.63;7396506;19;20375;-61
2023/06/04 11:22:23;;;;;;;5.72;1.50;;;;;;;19.01;38.82;102372.78;7392644;19;20479;-61
2023/06/04 11:24:58;;;;;;;3.97;1.30;;;;;;;19.15;38.39;102372.44;7396943;19;20498;-60
2023/06/04 11:27:26;;;;;;;3.08;1.25;;;;;;;19.17;38.47;102362.44;7396061;19;20471;-60
2023/06/04 11:30:06;;;;;;;3.85;1.20;;;;;;;19.14;38.87;102360.84;7396618;19;20035;-60
2023/06/04 11:32:33;;;;;;;7.70;1.90;;;;;;;19.15;39.20;102361.72;7393973;19;20022;-61